KLCI/LCI METAR and TAF weather

Enter ICAO airport designator
Station Type Date Time Source
KLCI METAR 2018/12/10 08:56 UTC NOAA

KLCI 100856Z AUTO 00000KT 10SM SCT045 M07/M08 A3004 RMK AO2 SLP190 T10671083 58006 FZRANO $


Station Type Date Time Source
KLCI Decoded METAR 2018/12/10 08:56 UTC NOAA

Laconia, Laconia Municipal Airport, NH, United States (KLCI) 43-34N 071-25W
Dec 10, 2018 - 03:56 AM EST / 2018.12.10 0856 UTC
Wind: Calm:0
Visibility: 10 mile(s):0
Sky conditions: partly cloudy
Temperature: 19.9 F (-6.7 C)
Dew Point: 17.1 F (-8.3 C)
Relative Humidity: 88%
Pressure (altimeter): 30.04 in. Hg (1017 hPa)
Pressure tendency: 0.02 inches (0.6 hPa) lower than three hours ago
ob: KLCI 100856Z AUTO 00000KT 10SM SCT045 M07/M08 A3004 RMK AO2 SLP190 T10671083 58006 FZRANO
cycle: 9

Station Type Date Time Source
KLCI TAF UTC NOAA

Error!


Example: see airport list